createdAt,value
2017-01-03T00:00:09.182Z,87.86
2017-01-03T00:01:08.551Z,87.34
2017-01-03T00:02:08.661Z,87.51
2017-01-03T00:03:08.643Z,87.02
2017-01-03T00:04:08.653Z,87.91
2017-01-03T00:05:08.617Z,87.92
2017-01-03T00:06:08.664Z,87.73
2017-01-03T00:07:08.890Z,88.07
2017-01-03T00:08:09.022Z,87.13
2017-01-03T00:09:08.373Z,87.80
2017-01-03T00:10:08.611Z,87.07
2017-01-03T00:11:08.714Z,86.76
2017-01-03T00:12:08.962Z,86.56
2017-01-03T00:13:08.430Z,87.25
2017-01-03T00:14:08.873Z,86.43
2017-01-03T00:15:08.861Z,87.11
2017-01-03T00:16:08.823Z,87.36
2017-01-03T00:17:09.104Z,86.23
2017-01-03T00:18:08.496Z,87.51
2017-01-03T00:19:08.837Z,87.37
2017-01-03T00:20:09.228Z,87.88
2017-01-03T00:21:08.731Z,87.55
2017-01-03T00:22:08.556Z,87.53
2017-01-03T00:23:08.697Z,88.00
2017-01-03T00:24:08.604Z,87.93
2017-01-03T00:25:08.722Z,87.37
2017-01-03T00:26:08.873Z,87.40
2017-01-03T00:27:09.112Z,87.20
2017-01-03T00:28:08.495Z,86.42
2017-01-03T00:29:08.689Z,86.39
2017-01-03T00:30:08.757Z,86.67
2017-01-03T00:31:09.106Z,86.88
2017-01-03T00:32:08.706Z,87.49
2017-01-03T00:33:08.714Z,87.07
2017-01-03T00:34:08.694Z,87.38
2017-01-03T00:35:08.815Z,87.48
2017-01-03T00:36:09.104Z,86.93
2017-01-03T00:37:08.683Z,87.06
2017-01-03T00:38:08.615Z,87.58
2017-01-03T00:39:09.089Z,87.17
2017-01-03T00:40:08.921Z,86.99
2017-01-03T00:41:09.287Z,86.88
2017-01-03T00:42:08.471Z,86.66
2017-01-03T00:43:08.775Z,86.35
2017-01-03T00:44:08.715Z,86.39
2017-01-03T00:45:08.768Z,86.87
2017-01-03T00:46:08.741Z,86.93
2017-01-03T00:47:08.664Z,87.69
2017-01-03T00:48:08.750Z,87.06
2017-01-03T00:49:08.758Z,86.87
2017-01-03T00:50:08.898Z,87.40
2017-01-03T00:51:09.002Z,86.45
2017-01-03T00:52:08.350Z,86.28
2017-01-03T00:53:08.492Z,86.48
2017-01-03T00:54:08.593Z,87.15
2017-01-03T00:55:08.551Z,87.22
2017-01-03T00:56:08.513Z,87.88
2017-01-03T00:57:08.841Z,87.59
2017-01-03T00:58:18.335Z,87.48
2017-01-03T00:59:08.514Z,87.06
2017-01-03T01:00:08.881Z,86.18
2017-01-03T01:01:08.887Z,86.39
2017-01-03T01:02:08.940Z,86.66
2017-01-03T01:03:08.652Z,87.01
2017-01-03T01:04:08.748Z,87.75
2017-01-03T01:05:08.791Z,87.06
2017-01-03T01:06:09.006Z,86.57
2017-01-03T01:07:34.018Z,87.00
2017-01-03T01:08:08.442Z,86.85
2017-01-03T01:09:08.718Z,86.69
2017-01-03T01:10:08.827Z,86.76
2017-01-03T01:11:08.817Z,86.92
2017-01-03T01:12:08.779Z,86.94
2017-01-03T01:13:08.677Z,86.71
2017-01-03T01:14:08.667Z,87.52
2017-01-03T01:15:08.758Z,87.37
2017-01-03T01:16:08.717Z,86.75
2017-01-03T01:17:08.699Z,86.93
2017-01-03T01:18:08.593Z,86.74
2017-01-03T01:19:08.257Z,87.00
2017-01-03T01:20:08.432Z,86.99
2017-01-03T01:21:08.628Z,86.92
2017-01-03T01:22:08.656Z,86.67
2017-01-03T01:23:08.830Z,86.79
2017-01-03T01:24:09.065Z,86.38
2017-01-03T01:25:08.521Z,87.08
2017-01-03T01:26:08.629Z,87.41
2017-01-03T01:27:08.676Z,87.53
2017-01-03T01:28:08.574Z,87.10
2017-01-03T01:29:08.518Z,87.36
2017-01-03T01:30:08.298Z,86.89
2017-01-03T01:31:08.646Z,86.92
2017-01-03T01:32:08.634Z,86.31
2017-01-03T01:33:08.642Z,85.95
2017-01-03T01:34:08.665Z,85.78
2017-01-03T01:35:08.638Z,85.51
2017-01-03T01:36:09.002Z,85.98
2017-01-03T01:37:08.441Z,87.36
2017-01-03T01:38:09.012Z,87.09
2017-01-03T01:39:08.111Z,87.02
2017-01-03T01:40:08.547Z,87.40
2017-01-03T01:41:08.860Z,87.86
2017-01-03T01:42:09.503Z,87.80
2017-01-03T01:43:08.843Z,87.31
2017-01-03T01:44:08.867Z,87.32
2017-01-03T01:45:08.741Z,86.80
2017-01-03T01:46:08.649Z,86.48
2017-01-03T01:47:08.841Z,86.75
2017-01-03T01:48:08.544Z,85.83
2017-01-03T01:49:08.803Z,85.95
2017-01-03T01:50:09.130Z,85.99
2017-01-03T01:51:08.270Z,86.09
2017-01-03T01:52:09.185Z,87.60
2017-01-03T01:53:08.582Z,87.47
2017-01-03T01:54:08.669Z,86.22
2017-01-03T01:55:09.009Z,86.27
2017-01-03T01:56:08.443Z,85.89
2017-01-03T01:57:09.048Z,85.89
2017-01-03T01:58:08.526Z,85.89
2017-01-03T01:59:08.550Z,86.43
2017-01-03T02:00:08.542Z,85.85
2017-01-03T02:01:08.676Z,85.99
2017-01-03T02:02:08.599Z,86.08
2017-01-03T02:03:08.788Z,85.48
2017-01-03T02:04:08.996Z,85.73
2017-01-03T02:05:08.798Z,86.65
2017-01-03T02:06:09.049Z,87.02
2017-01-03T02:07:08.289Z,86.18
2017-01-03T02:08:08.994Z,86.81
2017-01-03T02:09:08.647Z,87.28
2017-01-03T02:10:09.020Z,86.81
2017-01-03T02:11:08.465Z,87.11
2017-01-03T02:12:08.706Z,86.55
2017-01-03T02:13:08.711Z,87.51
2017-01-03T02:14:08.415Z,87.32
2017-01-03T02:15:08.659Z,87.26
2017-01-03T02:16:08.668Z,87.37
2017-01-03T02:17:08.819Z,87.10
2017-01-03T02:18:08.817Z,87.08
2017-01-03T02:19:09.031Z,87.16
2017-01-03T02:20:08.257Z,87.84
2017-01-03T02:21:08.860Z,88.12
2017-01-03T02:22:08.994Z,88.33
2017-01-03T02:23:08.678Z,87.67
2017-01-03T02:24:08.844Z,87.41
2017-01-03T02:25:09.201Z,87.50
2017-01-03T02:26:08.771Z,87.23
2017-01-03T02:27:09.210Z,86.81
2017-01-03T02:28:17.682Z,87.23
2017-01-03T02:29:08.560Z,87.11
2017-01-03T02:30:08.987Z,87.33
2017-01-03T02:31:08.640Z,88.13
2017-01-03T02:32:08.861Z,89.22
2017-01-03T02:33:08.578Z,89.47
2017-01-03T02:34:08.645Z,89.48
2017-01-03T02:35:09.086Z,88.85
2017-01-03T02:36:08.498Z,89.22
2017-01-03T02:37:08.847Z,88.94
2017-01-03T02:38:08.989Z,88.99
2017-01-03T02:39:08.757Z,88.75
2017-01-03T02:40:09.186Z,89.34
2017-01-03T02:41:08.924Z,88.84
2017-01-03T02:42:08.590Z,88.84
2017-01-03T02:43:09.033Z,89.53
2017-01-03T02:44:08.434Z,89.85
2017-01-03T02:45:08.899Z,89.82
2017-01-03T02:46:09.139Z,89.19
2017-01-03T02:47:08.606Z,89.57
2017-01-03T02:48:08.863Z,89.77
2017-01-03T02:49:08.849Z,90.40
2017-01-03T02:50:08.990Z,90.35
2017-01-03T02:51:08.466Z,89.79
2017-01-03T02:52:09.159Z,89.91
2017-01-03T02:53:08.412Z,90.09
2017-01-03T02:54:08.592Z,89.75
2017-01-03T02:55:09.069Z,90.92
2017-01-03T02:56:08.428Z,91.36
2017-01-03T02:57:08.407Z,90.88
2017-01-03T02:58:17.849Z,90.74
2017-01-03T02:59:08.731Z,90.67
2017-01-03T03:00:08.963Z,90.42
2017-01-03T03:01:08.905Z,90.64
2017-01-03T03:02:09.254Z,91.00
2017-01-03T03:03:08.817Z,91.25
2017-01-03T03:04:09.019Z,90.55
2017-01-03T03:05:08.567Z,90.09
2017-01-03T03:06:09.129Z,90.92
2017-01-03T03:07:08.574Z,90.89
2017-01-03T03:08:08.661Z,90.40
2017-01-03T03:09:08.839Z,89.98
2017-01-03T03:10:08.948Z,91.18
2017-01-03T03:11:08.576Z,91.23
2017-01-03T03:12:08.997Z,91.95
2017-01-03T03:13:08.721Z,91.82
2017-01-03T03:14:08.938Z,91.19
2017-01-03T03:15:08.799Z,91.80
2017-01-03T03:16:08.987Z,91.55
2017-01-03T03:17:28.469Z,91.91
2017-01-03T03:18:09.050Z,91.30
2017-01-03T03:19:08.507Z,91.19
2017-01-03T03:20:08.757Z,91.52
2017-01-03T03:21:08.799Z,91.35
2017-01-03T03:22:08.827Z,91.45
2017-01-03T03:23:08.877Z,92.28
2017-01-03T03:24:08.966Z,92.40
2017-01-03T03:25:08.490Z,92.38
2017-01-03T03:26:08.870Z,92.33
2017-01-03T03:27:09.032Z,92.37
2017-01-03T03:28:08.899Z,91.76
2017-01-03T03:29:09.079Z,91.45
2017-01-03T03:30:08.816Z,92.46
2017-01-03T03:31:08.961Z,91.57
2017-01-03T03:32:08.655Z,91.36
2017-01-03T03:33:09.214Z,90.63
2017-01-03T03:34:08.788Z,91.53
2017-01-03T03:35:08.947Z,91.02
2017-01-03T03:36:08.619Z,91.02
2017-01-03T03:37:09.069Z,91.25
2017-01-03T03:38:08.649Z,91.53
2017-01-03T03:39:08.902Z,92.10
2017-01-03T03:40:09.106Z,92.13
2017-01-03T03:41:08.961Z,90.77
2017-01-03T03:42:08.656Z,90.32
2017-01-03T03:43:08.911Z,90.19
2017-01-03T03:44:08.876Z,90.69
2017-01-03T03:45:09.059Z,91.38
2017-01-03T03:46:08.857Z,91.61
2017-01-03T03:47:09.159Z,91.72
2017-01-03T03:48:08.423Z,91.08
2017-01-03T03:49:08.538Z,91.26
2017-01-03T03:50:08.409Z,90.80
2017-01-03T03:51:08.733Z,90.65
2017-01-03T03:52:09.103Z,89.68
2017-01-03T03:53:08.400Z,89.55
2017-01-03T03:56:13.856Z,90.95
2017-01-03T03:57:08.760Z,90.30
2017-01-03T03:58:09.239Z,90.99
2017-01-03T03:59:08.628Z,91.23
2017-01-03T04:00:08.889Z,90.41
2017-01-03T04:01:09.366Z,91.17
2017-01-03T04:02:08.638Z,90.29
2017-01-03T04:03:18.154Z,89.85
2017-01-03T04:04:08.391Z,89.29
2017-01-03T04:05:17.905Z,89.55
2017-01-03T04:06:09.350Z,89.17
2017-01-03T04:07:17.841Z,89.13
2017-01-03T04:09:03.546Z,89.78
2017-01-03T04:09:08.926Z,89.12
2017-01-03T04:10:09.032Z,90.11
2017-01-03T04:11:08.677Z,89.86
2017-01-03T04:12:09.293Z,89.00
2017-01-03T04:13:08.853Z,89.60
2017-01-03T04:14:08.933Z,89.75
2017-01-03T04:15:08.956Z,89.49
2017-01-03T04:16:08.477Z,89.87
2017-01-03T04:17:08.960Z,89.83
2017-01-03T04:19:09.142Z,89.54
2017-01-03T04:20:08.436Z,89.09
2017-01-03T04:21:08.382Z,88.58
2017-01-03T04:22:08.784Z,89.02
2017-01-03T04:23:08.976Z,88.64
2017-01-03T04:24:08.416Z,88.67
2017-01-03T04:25:08.897Z,88.25
2017-01-03T04:26:08.766Z,88.31
2017-01-03T04:27:08.764Z,89.09
2017-01-03T04:28:08.821Z,89.50
2017-01-03T04:29:08.867Z,90.03
2017-01-03T04:30:08.910Z,90.44
2017-01-03T04:31:09.120Z,89.77
2017-01-03T04:32:08.730Z,88.93
2017-01-03T04:33:09.177Z,89.04
2017-01-03T04:34:08.273Z,89.42
2017-01-03T04:35:08.590Z,89.50
2017-01-03T04:36:08.987Z,89.84
2017-01-03T04:37:08.821Z,89.85
2017-01-03T04:38:09.043Z,89.69
2017-01-03T04:39:08.623Z,89.46
2017-01-03T04:40:09.008Z,88.91
2017-01-03T04:41:08.729Z,89.26
2017-01-03T04:42:08.983Z,89.61
2017-01-03T04:43:08.768Z,89.87
2017-01-03T04:44:42.798Z,90.28
2017-01-03T04:45:08.786Z,89.82
2017-01-03T04:46:08.992Z,89.35
2017-01-03T04:47:08.395Z,89.13
2017-01-03T04:48:08.967Z,88.79
2017-01-03T04:49:08.745Z,89.39
2017-01-03T04:50:09.150Z,89.88
2017-01-03T04:51:08.387Z,89.88
2017-01-03T04:52:08.851Z,89.18
2017-01-03T04:53:09.578Z,89.09
2017-01-03T04:54:09.051Z,88.63
2017-01-03T04:55:08.762Z,89.04
2017-01-03T04:56:09.150Z,89.43
2017-01-03T04:57:08.583Z,89.46
2017-01-03T04:58:08.749Z,89.38
2017-01-03T04:59:08.752Z,88.95
2017-01-03T05:00:08.888Z,88.83
2017-01-03T05:01:08.917Z,88.76
2017-01-03T05:02:09.380Z,88.58
2017-01-03T05:03:08.822Z,88.37
2017-01-03T05:04:08.821Z,88.98
2017-01-03T05:05:08.901Z,89.05
2017-01-03T05:06:09.053Z,88.35
2017-01-03T05:07:08.564Z,88.93
2017-01-03T05:08:08.802Z,88.70
2017-01-03T05:09:08.914Z,88.43
2017-01-03T05:10:09.001Z,88.13
2017-01-03T05:11:08.825Z,88.10
2017-01-03T05:12:27.822Z,88.16
2017-01-03T05:13:08.992Z,88.47
2017-01-03T05:14:08.542Z,89.24
2017-01-03T05:15:08.596Z,89.10
2017-01-03T05:16:08.582Z,88.55
2017-01-03T05:17:08.938Z,89.05
2017-01-03T05:18:08.443Z,88.49
2017-01-03T05:19:09.142Z,88.12
2017-01-03T05:20:08.813Z,88.48
2017-01-03T05:21:08.950Z,88.37
2017-01-03T05:22:08.713Z,88.48
2017-01-03T05:23:08.950Z,88.30
2017-01-03T05:24:08.062Z,87.83
2017-01-03T05:25:11.431Z,87.65
2017-01-03T05:26:22.082Z,87.87
2017-01-03T05:27:08.864Z,87.71
2017-01-03T05:28:08.848Z,87.30
2017-01-03T05:29:08.794Z,87.59
2017-01-03T05:30:09.067Z,87.55
2017-01-03T05:31:08.810Z,87.75
2017-01-03T05:32:09.757Z,87.64
2017-01-03T05:33:08.674Z,88.11
2017-01-03T05:34:08.798Z,87.82
2017-01-03T05:35:09.284Z,88.09
2017-01-03T05:36:08.900Z,88.20
2017-01-03T05:37:08.859Z,88.58
2017-01-03T05:38:08.887Z,89.14
2017-01-03T05:39:08.785Z,88.79
2017-01-03T05:40:09.191Z,88.62
2017-01-03T05:41:09.065Z,87.49
2017-01-03T05:42:08.852Z,87.20
2017-01-03T05:43:08.880Z,88.05
2017-01-03T05:44:08.859Z,87.73
2017-01-03T05:45:09.209Z,87.96
2017-01-03T05:46:08.601Z,87.93
2017-01-03T05:47:08.530Z,88.04
2017-01-03T05:48:08.714Z,87.81
2017-01-03T05:49:09.119Z,87.86
2017-01-03T05:50:08.883Z,87.64
2017-01-03T05:51:08.978Z,87.41
2017-01-03T05:52:08.523Z,87.53
2017-01-03T05:53:09.140Z,87.66
2017-01-03T05:54:08.743Z,88.59
2017-01-03T05:55:09.159Z,88.11
2017-01-03T05:56:08.384Z,87.36
2017-01-03T05:57:08.501Z,87.20
2017-01-03T05:58:08.783Z,87.13
2017-01-03T05:59:08.941Z,87.04
2017-01-03T06:00:08.543Z,87.24
2017-01-03T06:01:08.594Z,87.18
2017-01-03T06:02:08.925Z,87.38
2017-01-03T06:03:08.885Z,87.17
2017-01-03T06:04:08.804Z,87.43
2017-01-03T06:05:09.244Z,87.40
2017-01-03T06:06:08.825Z,87.31
2017-01-03T06:07:09.079Z,86.99
2017-01-03T06:08:08.573Z,86.46
2017-01-03T06:09:09.016Z,86.96
2017-01-03T06:10:08.755Z,86.97
2017-01-03T06:11:28.804Z,87.18
2017-01-03T06:12:09.395Z,87.76
2017-01-03T06:13:08.715Z,87.69
2017-01-03T06:14:08.793Z,87.46
2017-01-03T06:15:09.044Z,87.52
2017-01-03T06:16:08.621Z,87.71
2017-01-03T06:17:28.289Z,88.29
2017-01-03T06:18:08.802Z,87.35
2017-01-03T06:19:09.328Z,88.05
2017-01-03T06:20:11.729Z,87.93
2017-01-03T06:21:08.798Z,87.38
2017-01-03T06:22:09.376Z,86.54
2017-01-03T06:23:08.815Z,86.48
2017-01-03T06:24:09.036Z,86.57
2017-01-03T06:25:08.605Z,86.62
2017-01-03T06:26:08.991Z,86.64
2017-01-03T06:27:08.471Z,86.68
2017-01-03T06:28:09.055Z,87.15
2017-01-03T06:29:08.755Z,86.23
2017-01-03T06:30:09.606Z,86.04
2017-01-03T06:31:08.906Z,86.15
2017-01-03T06:32:09.056Z,86.10
2017-01-03T06:33:08.434Z,86.52
2017-01-03T06:34:09.017Z,86.19
2017-01-03T06:35:08.467Z,85.97
2017-01-03T06:36:09.033Z,87.07
2017-01-03T06:37:08.690Z,86.70
2017-01-03T06:38:08.533Z,86.44
2017-01-03T06:39:08.942Z,85.76
2017-01-03T06:40:08.736Z,85.68
2017-01-03T06:41:09.137Z,84.85
2017-01-03T06:42:08.777Z,85.08
2017-01-03T06:43:09.222Z,85.41
2017-01-03T06:44:08.593Z,86.48
2017-01-03T06:45:08.913Z,86.69
2017-01-03T06:46:09.251Z,86.22
2017-01-03T06:47:08.702Z,86.06
2017-01-03T06:48:09.233Z,86.47
2017-01-03T06:49:08.733Z,86.43
2017-01-03T06:50:08.932Z,86.12
2017-01-03T06:51:08.859Z,86.90
2017-01-03T06:52:09.296Z,86.24
2017-01-03T06:53:08.639Z,85.85
2017-01-03T06:54:08.645Z,85.42
2017-01-03T06:55:08.772Z,85.51
2017-01-03T06:56:08.837Z,85.90
2017-01-03T06:57:24.021Z,86.57
2017-01-03T06:58:08.628Z,85.46
2017-01-03T06:59:10.291Z,86.62
2017-01-03T07:00:08.568Z,87.14
2017-01-03T07:01:08.608Z,86.51
2017-01-03T07:02:08.515Z,85.59
2017-01-03T07:03:08.806Z,84.43
2017-01-03T07:04:09.197Z,84.40
2017-01-03T07:05:08.880Z,85.87
2017-01-03T07:06:09.525Z,86.33
2017-01-03T07:07:08.918Z,85.37
2017-01-03T07:08:09.436Z,84.75
2017-01-03T07:09:08.816Z,84.74
2017-01-03T07:10:09.158Z,84.20
2017-01-03T07:11:08.832Z,84.05
2017-01-03T07:12:09.210Z,83.83
2017-01-03T07:13:08.857Z,84.02
2017-01-03T07:14:28.860Z,83.77
2017-01-03T07:15:09.256Z,84.67
2017-01-03T07:16:08.855Z,84.26
2017-01-03T07:17:09.235Z,84.52
2017-01-03T07:18:08.763Z,85.13
2017-01-03T07:19:09.020Z,84.87
2017-01-03T07:20:08.773Z,84.35
2017-01-03T07:21:09.190Z,84.04
2017-01-03T07:22:08.718Z,84.44
2017-01-03T07:23:09.289Z,84.18
2017-01-03T07:24:08.746Z,84.37
2017-01-03T07:25:09.163Z,84.59
2017-01-03T07:26:08.896Z,84.08
2017-01-03T07:27:09.090Z,84.57
2017-01-03T07:28:08.631Z,84.48
2017-01-03T07:29:08.888Z,84.43
2017-01-03T07:30:09.252Z,84.92
2017-01-03T07:31:08.764Z,84.58
2017-01-03T07:32:08.917Z,84.58
2017-01-03T07:33:08.980Z,84.53
2017-01-03T07:34:08.035Z,84.17
2017-01-03T07:35:09.174Z,84.47
2017-01-03T07:36:08.681Z,83.71
2017-01-03T07:37:09.008Z,83.57
2017-01-03T07:38:08.600Z,83.76
2017-01-03T07:39:09.157Z,83.72
2017-01-03T07:40:08.755Z,84.13
2017-01-03T07:41:09.124Z,83.82
2017-01-03T07:42:08.810Z,83.66
2017-01-03T07:43:09.242Z,84.27
2017-01-03T07:44:09.050Z,83.41
2017-01-03T07:45:08.660Z,82.97
2017-01-03T07:46:28.455Z,82.26
2017-01-03T07:48:09.093Z,81.96
2017-01-03T07:49:08.870Z,82.94
2017-01-03T07:50:09.485Z,83.84
2017-01-03T07:51:09.051Z,84.14
2017-01-03T07:52:08.809Z,82.72
2017-01-03T07:53:09.507Z,82.41
2017-01-03T07:54:08.891Z,82.34
2017-01-03T07:55:09.237Z,82.35
2017-01-03T07:56:09.040Z,82.56
2017-01-03T07:57:09.247Z,83.00
2017-01-03T07:58:08.830Z,82.71
2017-01-03T07:59:09.202Z,82.80
2017-01-03T08:00:08.829Z,82.95
2017-01-03T08:01:09.152Z,82.18
2017-01-03T08:02:09.009Z,82.18
2017-01-03T08:03:08.628Z,81.03
2017-01-03T08:04:09.169Z,81.53
2017-01-03T08:05:08.897Z,82.08
2017-01-03T08:06:09.424Z,81.89
2017-01-03T08:07:08.729Z,82.41
2017-01-03T08:08:09.529Z,81.89
2017-01-03T08:09:10.559Z,82.00
2017-01-03T08:10:09.127Z,82.52
2017-01-03T08:11:08.797Z,81.63
2017-01-03T08:12:09.184Z,80.98
2017-01-03T08:13:08.435Z,80.75
2017-01-03T08:14:09.389Z,81.55
2017-01-03T08:15:08.460Z,81.72
2017-01-03T08:16:08.861Z,81.16
2017-01-03T08:17:09.194Z,81.31
2017-01-03T08:18:08.899Z,80.71
2017-01-03T08:19:09.419Z,80.39
2017-01-03T08:20:08.810Z,80.86
2017-01-03T08:21:08.929Z,80.28
2017-01-03T08:22:09.387Z,80.43
2017-01-03T08:23:08.641Z,80.39
2017-01-03T08:24:09.042Z,81.38
2017-01-03T08:25:08.655Z,80.62
2017-01-03T08:26:08.982Z,82.23
2017-01-03T08:27:08.524Z,81.88
2017-01-03T08:28:08.943Z,82.06
2017-01-03T08:29:08.244Z,82.32
2017-01-03T08:30:09.084Z,82.89
2017-01-03T08:31:08.937Z,81.93
2017-01-03T08:32:09.618Z,80.73
2017-01-03T08:33:09.182Z,81.39
2017-01-03T08:34:08.929Z,81.62
2017-01-03T08:35:09.105Z,81.11
2017-01-03T08:36:08.506Z,80.88
2017-01-03T08:37:09.134Z,80.68
2017-01-03T08:38:08.739Z,80.20
2017-01-03T08:39:08.588Z,80.24
2017-01-03T08:40:08.890Z,81.15
2017-01-03T08:41:09.294Z,80.88
2017-01-03T08:42:08.794Z,82.25
2017-01-03T08:43:09.157Z,82.26
2017-01-03T08:44:08.739Z,82.76
2017-01-03T08:45:09.096Z,82.73
2017-01-03T08:46:08.655Z,82.65
2017-01-03T08:47:09.034Z,82.56
2017-01-03T08:48:08.642Z,81.53
2017-01-03T08:49:09.136Z,81.68
2017-01-03T08:50:08.692Z,80.74
2017-01-03T08:51:09.182Z,80.75
2017-01-03T08:52:08.796Z,81.61
2017-01-03T08:53:39.751Z,80.25
2017-01-03T08:54:08.972Z,81.52
2017-01-03T08:55:08.431Z,81.13
2017-01-03T08:56:08.783Z,80.86
2017-01-03T08:57:08.867Z,80.80
2017-01-03T08:58:08.873Z,82.39
2017-01-03T08:59:09.273Z,82.22
2017-01-03T09:00:09.196Z,81.64
2017-01-03T09:01:08.754Z,81.52
2017-01-03T09:02:08.859Z,81.27
2017-01-03T09:03:09.198Z,81.66
2017-01-03T09:04:08.857Z,79.14
2017-01-03T09:05:09.355Z,78.88
2017-01-03T09:06:08.726Z,79.67
2017-01-03T09:07:09.055Z,79.49
2017-01-03T09:08:08.689Z,80.07
2017-01-03T09:09:09.133Z,79.71
2017-01-03T09:10:08.564Z,79.36
2017-01-03T09:11:09.139Z,79.63
2017-01-03T09:12:08.717Z,78.52
2017-01-03T09:13:09.473Z,78.11
2017-01-03T09:14:08.760Z,78.84
2017-01-03T09:16:09.194Z,80.87
2017-01-03T09:16:11.475Z,80.55
2017-01-03T09:17:08.953Z,80.24
2017-01-03T09:18:08.482Z,80.64
2017-01-03T09:19:08.849Z,80.15
2017-01-03T09:20:09.242Z,79.38
2017-01-03T09:21:08.744Z,78.87
2017-01-03T09:22:08.837Z,79.19
2017-01-03T09:23:09.011Z,78.53
2017-01-03T09:24:08.581Z,79.39
2017-01-03T09:25:08.997Z,78.37
2017-01-03T09:26:08.749Z,78.67
2017-01-03T09:27:08.983Z,79.60
2017-01-03T09:28:08.033Z,80.07
2017-01-03T09:29:08.954Z,78.92
2017-01-03T09:30:08.543Z,78.75
2017-01-03T09:31:08.963Z,78.33
2017-01-03T09:32:08.541Z,78.23
2017-01-03T09:33:09.151Z,77.00
2017-01-03T09:34:08.421Z,76.73
2017-01-03T09:35:08.718Z,76.96
2017-01-03T09:36:09.092Z,77.38
2017-01-03T09:37:08.805Z,77.57
2017-01-03T09:38:09.116Z,78.12
2017-01-03T09:39:08.766Z,79.06
2017-01-03T09:40:09.234Z,78.94
2017-01-03T09:41:09.017Z,78.05
2017-01-03T09:42:08.617Z,77.77
2017-01-03T09:43:08.989Z,78.34
2017-01-03T09:44:08.584Z,78.24
2017-01-03T09:45:08.987Z,76.84
2017-01-03T09:46:08.646Z,76.68
2017-01-03T09:47:09.049Z,76.35
2017-01-03T09:48:08.471Z,75.70
2017-01-03T09:49:08.697Z,75.75
2017-01-03T09:50:09.096Z,74.70
2017-01-03T09:51:08.722Z,74.51
2017-01-03T09:52:09.151Z,75.75
2017-01-03T09:53:08.769Z,75.36
2017-01-03T09:54:09.146Z,74.52
2017-01-03T09:55:08.278Z,75.03
2017-01-03T09:56:08.739Z,75.45
2017-01-03T09:57:09.051Z,73.28
2017-01-03T09:58:08.731Z,74.66
2017-01-03T09:59:09.044Z,74.15
2017-01-03T10:00:08.652Z,75.09
2017-01-03T10:01:10.719Z,75.64
2017-01-03T10:02:09.147Z,74.07
2017-01-03T10:03:08.616Z,75.51
2017-01-03T10:04:08.991Z,75.09
2017-01-03T10:05:08.900Z,74.92
2017-01-03T10:06:10.859Z,73.40
2017-01-03T10:07:09.035Z,72.70
2017-01-03T10:08:08.653Z,73.18
2017-01-03T10:09:28.793Z,73.58
2017-01-03T10:10:08.898Z,73.85
2017-01-03T10:11:09.187Z,73.70
2017-01-03T10:12:08.517Z,74.09
2017-01-03T10:13:08.530Z,73.50
2017-01-03T10:14:08.547Z,73.76
2017-01-03T10:15:08.611Z,73.47
2017-01-03T10:16:09.089Z,72.60
2017-01-03T10:17:08.927Z,73.75
2017-01-03T10:18:09.626Z,73.11
2017-01-03T10:19:08.908Z,73.47
2017-01-03T10:20:09.238Z,74.44
2017-01-03T10:21:08.893Z,74.67
2017-01-03T10:22:09.099Z,74.49
2017-01-03T10:23:08.772Z,72.97
2017-01-03T10:24:08.969Z,73.76
2017-01-03T10:25:08.496Z,74.56
2017-01-03T10:26:08.891Z,74.07
2017-01-03T10:27:09.005Z,74.45
2017-01-03T10:28:08.720Z,73.42
2017-01-03T10:29:09.162Z,72.82
2017-01-03T10:30:08.528Z,73.25
2017-01-03T10:31:08.774Z,73.66
2017-01-03T10:32:09.150Z,74.89
2017-01-03T10:33:08.598Z,75.47
2017-01-03T10:34:09.007Z,75.08
2017-01-03T10:35:08.832Z,74.11
2017-01-03T10:36:09.043Z,74.15
2017-01-03T10:37:08.677Z,74.25
2017-01-03T10:38:09.075Z,75.30
2017-01-03T10:39:08.760Z,74.20
2017-01-03T10:40:09.223Z,74.51
2017-01-03T10:41:09.385Z,75.63
2017-01-03T10:42:09.152Z,75.56
2017-01-03T10:43:08.452Z,74.08
2017-01-03T10:44:08.842Z,73.91
2017-01-03T10:45:09.032Z,73.20
2017-01-03T10:46:08.680Z,74.38
2017-01-03T10:47:09.305Z,74.05
2017-01-03T10:48:09.071Z,74.36
2017-01-03T10:49:08.709Z,75.19
2017-01-03T10:50:09.289Z,74.44
2017-01-03T10:51:09.060Z,74.24
2017-01-03T10:52:08.715Z,74.17
2017-01-03T10:53:09.290Z,74.25
2017-01-03T10:54:09.042Z,74.63
2017-01-03T10:55:08.648Z,74.75
2017-01-03T10:56:09.064Z,73.48
2017-01-03T10:57:08.710Z,73.17
2017-01-03T10:58:08.595Z,73.09
2017-01-03T10:59:08.712Z,72.86
2017-01-03T11:00:09.070Z,73.17
2017-01-03T11:01:08.659Z,72.09
2017-01-03T11:02:09.065Z,72.91
2017-01-03T11:03:08.788Z,72.25
2017-01-03T11:04:09.372Z,73.20
2017-01-03T11:05:10.876Z,70.14
2017-01-03T11:06:09.281Z,70.77
2017-01-03T11:07:08.934Z,71.24
2017-01-03T11:08:08.444Z,69.95
2017-01-03T11:09:08.969Z,70.33
2017-01-03T11:10:08.219Z,71.05
2017-01-03T11:11:08.697Z,70.89
2017-01-03T11:12:09.109Z,72.01
2017-01-03T11:13:08.904Z,71.65
2017-01-03T11:14:09.100Z,70.92
2017-01-03T11:15:08.744Z,71.26
2017-01-03T11:16:09.145Z,71.95
2017-01-03T11:17:08.480Z,72.00
2017-01-03T11:18:08.785Z,71.11
2017-01-03T11:19:09.047Z,71.52
2017-01-03T11:20:08.634Z,70.88
2017-01-03T11:21:09.157Z,71.13
2017-01-03T11:22:08.622Z,71.28
2017-01-03T11:23:09.082Z,71.60
2017-01-03T11:24:08.712Z,71.50
2017-01-03T11:25:09.137Z,70.43
2017-01-03T11:26:08.895Z,70.60
2017-01-03T11:27:09.165Z,69.82
2017-01-03T11:28:08.710Z,69.19
2017-01-03T11:29:09.127Z,69.43
2017-01-03T11:30:08.799Z,70.52
2017-01-03T11:31:09.188Z,69.39
2017-01-03T11:32:08.551Z,69.05
2017-01-03T11:33:08.733Z,70.17
2017-01-03T11:34:09.599Z,69.46
2017-01-03T11:35:08.779Z,70.85
2017-01-03T11:36:09.031Z,71.40
2017-01-03T11:37:08.395Z,70.44
2017-01-03T11:38:08.828Z,70.77
2017-01-03T11:39:08.848Z,69.82
2017-01-03T11:40:09.278Z,71.19
2017-01-03T11:41:08.760Z,71.20
2017-01-03T11:42:09.497Z,70.96
2017-01-03T11:43:09.299Z,71.42
2017-01-03T11:44:09.029Z,70.82
2017-01-03T11:45:09.116Z,71.20
2017-01-03T11:46:09.049Z,70.64
2017-01-03T11:47:08.610Z,70.47
2017-01-03T11:48:09.048Z,70.51
2017-01-03T11:49:08.981Z,70.67
2017-01-03T11:50:08.104Z,71.71
2017-01-03T11:51:08.651Z,70.69
2017-01-03T11:52:08.716Z,70.57
2017-01-03T11:53:08.312Z,71.92
2017-01-03T11:54:09.052Z,71.07
2017-01-03T11:55:08.586Z,70.79
2017-01-03T11:56:08.735Z,71.11
2017-01-03T11:57:09.183Z,71.36
2017-01-03T11:58:08.842Z,71.35
2017-01-03T11:59:08.775Z,71.09
2017-01-03T12:00:08.745Z,70.52
2017-01-03T12:01:09.000Z,71.14
2017-01-03T12:02:08.339Z,71.59
2017-01-03T12:03:08.930Z,71.29
2017-01-03T12:04:08.418Z,70.29
2017-01-03T12:05:08.648Z,70.78
2017-01-03T12:06:08.679Z,70.76
2017-01-03T12:08:17.558Z,72.74
2017-01-03T12:09:08.952Z,71.37
2017-01-03T12:10:08.687Z,70.21
2017-01-03T12:11:08.794Z,70.77
2017-01-03T12:12:09.206Z,70.71
2017-01-03T12:13:08.700Z,69.95
2017-01-03T12:14:09.100Z,70.26
2017-01-03T12:15:08.669Z,69.59
2017-01-03T12:16:09.261Z,68.64
2017-01-03T12:17:09.157Z,68.21
2017-01-03T12:18:08.641Z,68.51
2017-01-03T12:19:09.511Z,68.65
2017-01-03T12:20:08.906Z,69.15
2017-01-03T12:21:08.992Z,68.92
2017-01-03T12:23:18.078Z,70.73
2017-01-03T12:24:17.558Z,69.62
2017-01-03T12:25:08.973Z,70.44
2017-01-03T12:26:08.707Z,70.03
2017-01-03T12:27:09.139Z,70.00
2017-01-03T12:28:08.518Z,68.13
2017-01-03T12:29:09.835Z,69.24
2017-01-03T12:30:09.473Z,68.23
2017-01-03T12:31:08.972Z,68.23
2017-01-03T12:33:08.854Z,68.44
2017-01-03T12:34:10.716Z,69.52
2017-01-03T12:35:09.289Z,68.71
2017-01-03T12:36:09.063Z,69.30
2017-01-03T12:37:08.849Z,69.85
2017-01-03T12:38:10.172Z,69.95
2017-01-03T12:39:08.591Z,70.05
2017-01-03T12:41:19.846Z,68.70
2017-01-03T12:42:09.653Z,67.95
2017-01-03T12:43:09.272Z,68.47
2017-01-03T12:45:09.666Z,69.75
2017-01-03T12:46:09.360Z,69.49
2017-01-03T12:47:08.977Z,69.11
2017-01-03T12:48:33.948Z,68.76
2017-01-03T12:49:09.573Z,68.59
2017-01-03T12:50:09.076Z,68.24
2017-01-03T12:51:08.877Z,67.38
2017-01-03T12:52:09.522Z,68.72
2017-01-03T12:53:09.611Z,68.62
2017-01-03T12:54:10.390Z,67.51
2017-01-03T12:55:34.719Z,67.06
2017-01-03T12:56:09.256Z,67.55
2017-01-03T12:57:08.847Z,67.44
2017-01-03T12:58:09.591Z,67.87
2017-01-03T12:59:09.419Z,67.46
2017-01-03T13:00:09.173Z,67.69
2017-01-03T13:01:08.705Z,67.88